sensor_id;sensor_type;location;lat;lon;timestamp;P1;durP1;ratioP1;P2;durP2;ratioP2
22270;SDS011;11304;53.520;10.104;2023-05-29T00:00:21;19.48;;;2.88;;
22270;SDS011;11304;53.520;10.104;2023-05-29T00:02:49;11.85;;;2.42;;
22270;SDS011;11304;53.520;10.104;2023-05-29T00:05:15;15.98;;;3.25;;
22270;SDS011;11304;53.520;10.104;2023-05-29T00:07:42;10.60;;;2.50;;
22270;SDS011;11304;53.520;10.104;2023-05-29T00:10:09;10.93;;;2.78;;
22270;SDS011;11304;53.520;10.104;2023-05-29T00:12:35;16.60;;;3.25;;
22270;SDS011;11304;53.520;10.104;2023-05-29T00:15:01;13.63;;;2.75;;
22270;SDS011;11304;53.520;10.104;2023-05-29T00:17:30;15.32;;;2.85;;
22270;SDS011;11304;53.520;10.104;2023-05-29T00:19:57;12.50;;;3.00;;
22270;SDS011;11304;53.520;10.104;2023-05-29T00:22:24;11.55;;;2.97;;
22270;SDS011;11304;53.520;10.104;2023-05-29T00:24:51;13.00;;;2.88;;
22270;SDS011;11304;53.520;10.104;2023-05-29T00:27:17;12.18;;;2.70;;
22270;SDS011;11304;53.520;10.104;2023-05-29T00:29:43;12.48;;;3.22;;
22270;SDS011;11304;53.520;10.104;2023-05-29T00:32:09;16.13;;;2.60;;
22270;SDS011;11304;53.520;10.104;2023-05-29T00:34:35;11.88;;;3.05;;
22270;SDS011;11304;53.520;10.104;2023-05-29T00:37:01;8.80;;;2.65;;
22270;SDS011;11304;53.520;10.104;2023-05-29T00:39:28;19.80;;;3.25;;
22270;SDS011;11304;53.520;10.104;2023-05-29T00:41:54;14.32;;;3.00;;
22270;SDS011;11304;53.520;10.104;2023-05-29T00:44:20;18.35;;;3.40;;
22270;SDS011;11304;53.520;10.104;2023-05-29T00:46:51;12.30;;;3.00;;
22270;SDS011;11304;53.520;10.104;2023-05-29T00:49:18;13.45;;;3.00;;
22270;SDS011;11304;53.520;10.104;2023-05-29T00:51:44;16.48;;;2.47;;
22270;SDS011;11304;53.520;10.104;2023-05-29T00:54:12;17.67;;;3.15;;
22270;SDS011;11304;53.520;10.104;2023-05-29T00:56:39;20.23;;;3.42;;
22270;SDS011;11304;53.520;10.104;2023-05-29T00:59:07;16.10;;;3.33;;
22270;SDS011;11304;53.520;10.104;2023-05-29T01:01:33;14.52;;;3.15;;
22270;SDS011;11304;53.520;10.104;2023-05-29T01:04:00;19.80;;;3.88;;
22270;SDS011;11304;53.520;10.104;2023-05-29T01:06:29;19.00;;;3.28;;
22270;SDS011;11304;53.520;10.104;2023-05-29T01:08:55;18.52;;;3.65;;
22270;SDS011;11304;53.520;10.104;2023-05-29T01:11:27;16.40;;;3.20;;
22270;SDS011;11304;53.520;10.104;2023-05-29T01:13:57;12.68;;;3.30;;
22270;SDS011;11304;53.520;10.104;2023-05-29T01:16:35;14.35;;;2.72;;
22270;SDS011;11304;53.520;10.104;2023-05-29T01:19:20;15.07;;;2.95;;
22270;SDS011;11304;53.520;10.104;2023-05-29T01:24:56;17.05;;;3.85;;
22270;SDS011;11304;53.520;10.104;2023-05-29T01:27:24;15.43;;;3.20;;
22270;SDS011;11304;53.520;10.104;2023-05-29T01:29:51;15.85;;;3.05;;
22270;SDS011;11304;53.520;10.104;2023-05-29T01:32:18;12.75;;;3.45;;
22270;SDS011;11304;53.520;10.104;2023-05-29T01:34:44;14.40;;;2.75;;
22270;SDS011;11304;53.520;10.104;2023-05-29T01:37:11;13.63;;;3.35;;
22270;SDS011;11304;53.520;10.104;2023-05-29T01:39:38;15.70;;;3.35;;
22270;SDS011;11304;53.520;10.104;2023-05-29T01:42:04;17.98;;;3.13;;
22270;SDS011;11304;53.520;10.104;2023-05-29T01:44:31;14.45;;;3.13;;
22270;SDS011;11304;53.520;10.104;2023-05-29T01:46:57;17.23;;;3.65;;
22270;SDS011;11304;53.520;10.104;2023-05-29T01:49:23;15.18;;;3.45;;
22270;SDS011;11304;53.520;10.104;2023-05-29T01:51:50;19.27;;;3.30;;
22270;SDS011;11304;53.520;10.104;2023-05-29T01:54:16;14.25;;;3.00;;
22270;SDS011;11304;53.520;10.104;2023-05-29T01:56:42;15.70;;;3.38;;
22270;SDS011;11304;53.520;10.104;2023-05-29T01:59:09;18.23;;;3.25;;
22270;SDS011;11304;53.520;10.104;2023-05-29T02:01:38;17.17;;;3.15;;
22270;SDS011;11304;53.520;10.104;2023-05-29T02:04:04;13.75;;;2.97;;
22270;SDS011;11304;53.520;10.104;2023-05-29T02:06:30;19.95;;;3.60;;
22270;SDS011;11304;53.520;10.104;2023-05-29T02:08:58;17.23;;;3.10;;
22270;SDS011;11304;53.520;10.104;2023-05-29T02:11:24;18.55;;;3.50;;
22270;SDS011;11304;53.520;10.104;2023-05-29T02:13:53;19.40;;;3.60;;
22270;SDS011;11304;53.520;10.104;2023-05-29T02:16:20;19.52;;;3.67;;
22270;SDS011;11304;53.520;10.104;2023-05-29T02:18:46;21.48;;;3.58;;
22270;SDS011;11304;53.520;10.104;2023-05-29T02:21:12;21.27;;;4.35;;
22270;SDS011;11304;53.520;10.104;2023-05-29T02:23:38;18.85;;;3.10;;
22270;SDS011;11304;53.520;10.104;2023-05-29T02:26:05;14.52;;;3.35;;
22270;SDS011;11304;53.520;10.104;2023-05-29T02:28:31;18.83;;;2.90;;
22270;SDS011;11304;53.520;10.104;2023-05-29T02:30:57;20.15;;;3.45;;
22270;SDS011;11304;53.520;10.104;2023-05-29T02:33:23;28.70;;;3.90;;
22270;SDS011;11304;53.520;10.104;2023-05-29T02:35:49;21.33;;;3.70;;
22270;SDS011;11304;53.520;10.104;2023-05-29T02:38:15;18.95;;;3.03;;
22270;SDS011;11304;53.520;10.104;2023-05-29T02:40:41;18.25;;;3.55;;
22270;SDS011;11304;53.520;10.104;2023-05-29T02:43:09;21.60;;;3.22;;
22270;SDS011;11304;53.520;10.104;2023-05-29T02:45:35;16.92;;;2.75;;
22270;SDS011;11304;53.520;10.104;2023-05-29T02:48:01;22.67;;;3.40;;
22270;SDS011;11304;53.520;10.104;2023-05-29T02:50:28;18.42;;;3.50;;
22270;SDS011;11304;53.520;10.104;2023-05-29T02:52:55;15.80;;;3.75;;
22270;SDS011;11304;53.520;10.104;2023-05-29T02:55:21;16.85;;;3.13;;
22270;SDS011;11304;53.520;10.104;2023-05-29T02:57:47;15.73;;;3.55;;
22270;SDS011;11304;53.520;10.104;2023-05-29T03:00:17;18.00;;;3.25;;
22270;SDS011;11304;53.520;10.104;2023-05-29T03:02:43;21.83;;;2.92;;
22270;SDS011;11304;53.520;10.104;2023-05-29T03:05:10;22.13;;;4.20;;
22270;SDS011;11304;53.520;10.104;2023-05-29T03:07:36;21.58;;;3.22;;
22270;SDS011;11304;53.520;10.104;2023-05-29T03:10:02;19.42;;;3.72;;
22270;SDS011;11304;53.520;10.104;2023-05-29T03:12:29;19.50;;;3.42;;
22270;SDS011;11304;53.520;10.104;2023-05-29T03:14:55;15.77;;;3.47;;
22270;SDS011;11304;53.520;10.104;2023-05-29T03:17:24;21.55;;;4.07;;
22270;SDS011;11304;53.520;10.104;2023-05-29T03:19:50;23.98;;;3.60;;
22270;SDS011;11304;53.520;10.104;2023-05-29T03:22:16;18.10;;;3.60;;
22270;SDS011;11304;53.520;10.104;2023-05-29T03:24:42;18.33;;;3.50;;
22270;SDS011;11304;53.520;10.104;2023-05-29T03:27:09;22.50;;;3.90;;
22270;SDS011;11304;53.520;10.104;2023-05-29T03:29:35;26.20;;;4.00;;
22270;SDS011;11304;53.520;10.104;2023-05-29T03:32:01;18.10;;;3.42;;
22270;SDS011;11304;53.520;10.104;2023-05-29T03:34:27;20.70;;;3.55;;
22270;SDS011;11304;53.520;10.104;2023-05-29T03:36:54;14.88;;;3.72;;
22270;SDS011;11304;53.520;10.104;2023-05-29T03:39:21;21.40;;;3.80;;
22270;SDS011;11304;53.520;10.104;2023-05-29T03:41:47;22.05;;;3.90;;
22270;SDS011;11304;53.520;10.104;2023-05-29T03:44:13;20.80;;;4.32;;
22270;SDS011;11304;53.520;10.104;2023-05-29T03:46:39;22.42;;;4.35;;
22270;SDS011;11304;53.520;10.104;2023-05-29T03:49:05;25.55;;;4.28;;
22270;SDS011;11304;53.520;10.104;2023-05-29T03:51:32;20.38;;;3.70;;
22270;SDS011;11304;53.520;10.104;2023-05-29T03:53:58;21.63;;;4.50;;
22270;SDS011;11304;53.520;10.104;2023-05-29T03:56:24;21.58;;;3.80;;
22270;SDS011;11304;53.520;10.104;2023-05-29T03:58:51;25.67;;;3.85;;
22270;SDS011;11304;53.520;10.104;2023-05-29T04:01:17;23.80;;;3.53;;
22270;SDS011;11304;53.520;10.104;2023-05-29T04:03:43;20.38;;;3.85;;
22270;SDS011;11304;53.520;10.104;2023-05-29T04:06:10;21.63;;;3.80;;
22270;SDS011;11304;53.520;10.104;2023-05-29T04:08:36;26.88;;;3.88;;
22270;SDS011;11304;53.520;10.104;2023-05-29T04:11:02;16.75;;;3.63;;
22270;SDS011;11304;53.520;10.104;2023-05-29T04:13:29;18.65;;;3.72;;
22270;SDS011;11304;53.520;10.104;2023-05-29T04:15:55;23.95;;;3.80;;
22270;SDS011;11304;53.520;10.104;2023-05-29T04:18:21;24.40;;;4.00;;
22270;SDS011;11304;53.520;10.104;2023-05-29T04:20:47;18.40;;;3.30;;
22270;SDS011;11304;53.520;10.104;2023-05-29T04:23:13;16.42;;;3.30;;
22270;SDS011;11304;53.520;10.104;2023-05-29T04:25:39;22.27;;;3.85;;
22270;SDS011;11304;53.520;10.104;2023-05-29T04:28:06;17.08;;;4.07;;
22270;SDS011;11304;53.520;10.104;2023-05-29T04:30:32;20.83;;;3.95;;
22270;SDS011;11304;53.520;10.104;2023-05-29T04:32:58;21.77;;;4.03;;
22270;SDS011;11304;53.520;10.104;2023-05-29T04:35:24;17.70;;;3.42;;
22270;SDS011;11304;53.520;10.104;2023-05-29T04:37:53;18.48;;;3.75;;
22270;SDS011;11304;53.520;10.104;2023-05-29T04:40:21;21.27;;;3.85;;
22270;SDS011;11304;53.520;10.104;2023-05-29T04:42:47;21.70;;;3.63;;
22270;SDS011;11304;53.520;10.104;2023-05-29T04:45:15;18.17;;;3.72;;
22270;SDS011;11304;53.520;10.104;2023-05-29T04:47:45;19.00;;;4.40;;
22270;SDS011;11304;53.520;10.104;2023-05-29T04:50:11;26.90;;;4.65;;
22270;SDS011;11304;53.520;10.104;2023-05-29T04:52:37;25.70;;;4.25;;
22270;SDS011;11304;53.520;10.104;2023-05-29T04:55:04;19.23;;;4.22;;
22270;SDS011;11304;53.520;10.104;2023-05-29T04:57:30;23.75;;;4.68;;
22270;SDS011;11304;53.520;10.104;2023-05-29T04:59:57;16.70;;;3.72;;
22270;SDS011;11304;53.520;10.104;2023-05-29T05:02:23;21.98;;;4.05;;
22270;SDS011;11304;53.520;10.104;2023-05-29T05:04:49;19.23;;;4.35;;
22270;SDS011;11304;53.520;10.104;2023-05-29T05:07:15;15.30;;;3.88;;
22270;SDS011;11304;53.520;10.104;2023-05-29T05:09:42;18.38;;;3.95;;
22270;SDS011;11304;53.520;10.104;2023-05-29T05:12:08;28.08;;;5.18;;
22270;SDS011;11304;53.520;10.104;2023-05-29T05:14:34;26.05;;;4.45;;
22270;SDS011;11304;53.520;10.104;2023-05-29T05:17:00;20.15;;;3.80;;
22270;SDS011;11304;53.520;10.104;2023-05-29T05:19:26;23.45;;;4.35;;
22270;SDS011;11304;53.520;10.104;2023-05-29T05:21:52;21.50;;;3.55;;
22270;SDS011;11304;53.520;10.104;2023-05-29T05:24:18;22.63;;;4.50;;
22270;SDS011;11304;53.520;10.104;2023-05-29T05:26:45;24.20;;;4.30;;
22270;SDS011;11304;53.520;10.104;2023-05-29T05:29:11;20.55;;;4.35;;
22270;SDS011;11304;53.520;10.104;2023-05-29T05:31:37;23.55;;;4.85;;
22270;SDS011;11304;53.520;10.104;2023-05-29T05:34:03;21.42;;;3.70;;
22270;SDS011;11304;53.520;10.104;2023-05-29T05:36:29;26.20;;;4.78;;
22270;SDS011;11304;53.520;10.104;2023-05-29T05:38:56;20.70;;;3.70;;
22270;SDS011;11304;53.520;10.104;2023-05-29T05:41:22;24.85;;;4.82;;
22270;SDS011;11304;53.520;10.104;2023-05-29T05:43:48;18.98;;;4.28;;
22270;SDS011;11304;53.520;10.104;2023-05-29T05:46:14;19.17;;;4.05;;
22270;SDS011;11304;53.520;10.104;2023-05-29T05:48:42;25.25;;;4.15;;
22270;SDS011;11304;53.520;10.104;2023-05-29T05:51:08;24.75;;;4.25;;
22270;SDS011;11304;53.520;10.104;2023-05-29T05:53:35;23.98;;;4.80;;
22270;SDS011;11304;53.520;10.104;2023-05-29T05:56:01;15.82;;;4.25;;
22270;SDS011;11304;53.520;10.104;2023-05-29T05:58:28;17.55;;;4.40;;
22270;SDS011;11304;53.520;10.104;2023-05-29T06:00:54;18.17;;;4.10;;
22270;SDS011;11304;53.520;10.104;2023-05-29T06:03:20;24.77;;;4.90;;
22270;SDS011;11304;53.520;10.104;2023-05-29T06:05:46;25.42;;;4.40;;
22270;SDS011;11304;53.520;10.104;2023-05-29T06:08:12;16.27;;;3.95;;
22270;SDS011;11304;53.520;10.104;2023-05-29T06:10:38;18.05;;;3.63;;
22270;SDS011;11304;53.520;10.104;2023-05-29T06:13:04;19.60;;;3.65;;
22270;SDS011;11304;53.520;10.104;2023-05-29T06:15:30;17.50;;;4.00;;
22270;SDS011;11304;53.520;10.104;2023-05-29T06:17:57;17.70;;;3.75;;
22270;SDS011;11304;53.520;10.104;2023-05-29T06:20:23;17.00;;;3.55;;
22270;SDS011;11304;53.520;10.104;2023-05-29T06:22:49;18.88;;;3.55;;
22270;SDS011;11304;53.520;10.104;2023-05-29T06:25:18;16.67;;;3.15;;
22270;SDS011;11304;53.520;10.104;2023-05-29T06:27:45;18.15;;;4.00;;
22270;SDS011;11304;53.520;10.104;2023-05-29T06:30:11;19.58;;;4.18;;
22270;SDS011;11304;53.520;10.104;2023-05-29T06:32:37;17.20;;;3.90;;
22270;SDS011;11304;53.520;10.104;2023-05-29T06:35:04;16.63;;;4.00;;
22270;SDS011;11304;53.520;10.104;2023-05-29T06:37:31;15.20;;;3.50;;
22270;SDS011;11304;53.520;10.104;2023-05-29T06:39:57;19.27;;;3.85;;
22270;SDS011;11304;53.520;10.104;2023-05-29T06:42:23;20.23;;;3.83;;
22270;SDS011;11304;53.520;10.104;2023-05-29T06:44:50;16.00;;;3.95;;
22270;SDS011;11304;53.520;10.104;2023-05-29T06:47:17;15.82;;;3.85;;
22270;SDS011;11304;53.520;10.104;2023-05-29T06:49:43;20.48;;;4.13;;
22270;SDS011;11304;53.520;10.104;2023-05-29T06:52:09;17.45;;;3.42;;
22270;SDS011;11304;53.520;10.104;2023-05-29T06:54:35;20.88;;;3.85;;
22270;SDS011;11304;53.520;10.104;2023-05-29T06:57:01;16.83;;;4.18;;
22270;SDS011;11304;53.520;10.104;2023-05-29T06:59:27;14.93;;;3.75;;
22270;SDS011;11304;53.520;10.104;2023-05-29T07:01:53;18.45;;;3.95;;
22270;SDS011;11304;53.520;10.104;2023-05-29T07:04:19;19.67;;;3.92;;
22270;SDS011;11304;53.520;10.104;2023-05-29T07:06:45;16.55;;;3.92;;
22270;SDS011;11304;53.520;10.104;2023-05-29T07:09:11;24.60;;;4.65;;
22270;SDS011;11304;53.520;10.104;2023-05-29T07:11:38;17.40;;;3.70;;
22270;SDS011;11304;53.520;10.104;2023-05-29T07:14:04;16.55;;;4.15;;
22270;SDS011;11304;53.520;10.104;2023-05-29T07:16:30;20.58;;;4.05;;
22270;SDS011;11304;53.520;10.104;2023-05-29T07:18:56;22.35;;;4.30;;
22270;SDS011;11304;53.520;10.104;2023-05-29T07:21:22;16.42;;;3.65;;
22270;SDS011;11304;53.520;10.104;2023-05-29T07:23:48;14.75;;;3.03;;
22270;SDS011;11304;53.520;10.104;2023-05-29T07:26:15;13.65;;;3.33;;
22270;SDS011;11304;53.520;10.104;2023-05-29T07:28:41;16.08;;;3.90;;
22270;SDS011;11304;53.520;10.104;2023-05-29T07:31:07;21.17;;;3.97;;
22270;SDS011;11304;53.520;10.104;2023-05-29T07:33:34;15.57;;;3.80;;
22270;SDS011;11304;53.520;10.104;2023-05-29T07:36:00;20.27;;;4.10;;
22270;SDS011;11304;53.520;10.104;2023-05-29T07:38:26;14.23;;;3.42;;
22270;SDS011;11304;53.520;10.104;2023-05-29T07:40:52;19.02;;;3.85;;
22270;SDS011;11304;53.520;10.104;2023-05-29T07:43:18;21.42;;;4.03;;
22270;SDS011;11304;53.520;10.104;2023-05-29T07:45:44;17.48;;;3.80;;
22270;SDS011;11304;53.520;10.104;2023-05-29T07:48:11;18.25;;;3.40;;
22270;SDS011;11304;53.520;10.104;2023-05-29T07:50:37;20.73;;;4.55;;
22270;SDS011;11304;53.520;10.104;2023-05-29T07:53:03;18.52;;;3.53;;
22270;SDS011;11304;53.520;10.104;2023-05-29T07:55:29;17.95;;;4.25;;
22270;SDS011;11304;53.520;10.104;2023-05-29T07:57:55;20.52;;;4.07;;
22270;SDS011;11304;53.520;10.104;2023-05-29T08:00:21;16.55;;;4.03;;
22270;SDS011;11304;53.520;10.104;2023-05-29T08:02:48;15.10;;;4.20;;
22270;SDS011;11304;53.520;10.104;2023-05-29T08:05:14;15.27;;;3.92;;
22270;SDS011;11304;53.520;10.104;2023-05-29T08:07:40;20.85;;;4.07;;
22270;SDS011;11304;53.520;10.104;2023-05-29T08:10:08;19.35;;;4.40;;
22270;SDS011;11304;53.520;10.104;2023-05-29T08:12:34;15.88;;;3.58;;
22270;SDS011;11304;53.520;10.104;2023-05-29T08:15:01;22.52;;;4.10;;
22270;SDS011;11304;53.520;10.104;2023-05-29T08:17:27;18.42;;;4.38;;
22270;SDS011;11304;53.520;10.104;2023-05-29T08:19:54;16.05;;;4.13;;
22270;SDS011;11304;53.520;10.104;2023-05-29T08:22:20;19.38;;;4.28;;
22270;SDS011;11304;53.520;10.104;2023-05-29T08:24:47;16.25;;;3.58;;
22270;SDS011;11304;53.520;10.104;2023-05-29T08:27:13;16.02;;;4.43;;
22270;SDS011;11304;53.520;10.104;2023-05-29T08:29:39;20.60;;;4.50;;
22270;SDS011;11304;53.520;10.104;2023-05-29T08:32:05;15.63;;;4.00;;
22270;SDS011;11304;53.520;10.104;2023-05-29T08:34:31;17.65;;;3.78;;
22270;SDS011;11304;53.520;10.104;2023-05-29T08:36:58;14.00;;;4.70;;
22270;SDS011;11304;53.520;10.104;2023-05-29T08:39:24;13.43;;;3.53;;
22270;SDS011;11304;53.520;10.104;2023-05-29T08:44:23;15.55;;;3.85;;
22270;SDS011;11304;53.520;10.104;2023-05-29T08:46:54;15.98;;;3.90;;
22270;SDS011;11304;53.520;10.104;2023-05-29T08:49:21;18.42;;;3.90;;
22270;SDS011;11304;53.520;10.104;2023-05-29T08:51:49;14.70;;;4.07;;
22270;SDS011;11304;53.520;10.104;2023-05-29T08:54:15;11.05;;;3.17;;
22270;SDS011;11304;53.520;10.104;2023-05-29T08:56:42;15.88;;;4.20;;
22270;SDS011;11304;53.520;10.104;2023-05-29T08:59:08;15.90;;;4.03;;
22270;SDS011;11304;53.520;10.104;2023-05-29T09:01:35;15.55;;;3.72;;
22270;SDS011;11304;53.520;10.104;2023-05-29T09:06:29;14.43;;;3.95;;
22270;SDS011;11304;53.520;10.104;2023-05-29T09:08:56;11.82;;;3.42;;
22270;SDS011;11304;53.520;10.104;2023-05-29T09:11:23;15.98;;;4.00;;
22270;SDS011;11304;53.520;10.104;2023-05-29T09:13:49;15.18;;;4.00;;
22270;SDS011;11304;53.520;10.104;2023-05-29T09:16:18;15.50;;;4.10;;
22270;SDS011;11304;53.520;10.104;2023-05-29T09:18:45;12.18;;;3.50;;
22270;SDS011;11304;53.520;10.104;2023-05-29T09:21:24;18.13;;;3.95;;
22270;SDS011;11304;53.520;10.104;2023-05-29T09:23:54;14.20;;;3.85;;
22270;SDS011;11304;53.520;10.104;2023-05-29T09:26:21;13.90;;;3.80;;
22270;SDS011;11304;53.520;10.104;2023-05-29T09:28:50;15.05;;;3.83;;
22270;SDS011;11304;53.520;10.104;2023-05-29T09:31:16;12.80;;;3.40;;
22270;SDS011;11304;53.520;10.104;2023-05-29T09:33:47;17.17;;;3.92;;
22270;SDS011;11304;53.520;10.104;2023-05-29T09:36:20;17.30;;;3.90;;
22270;SDS011;11304;53.520;10.104;2023-05-29T09:38:47;12.38;;;3.58;;
22270;SDS011;11304;53.520;10.104;2023-05-29T09:41:13;16.40;;;3.72;;
22270;SDS011;11304;53.520;10.104;2023-05-29T09:43:45;14.73;;;3.95;;
22270;SDS011;11304;53.520;10.104;2023-05-29T09:46:14;15.82;;;4.05;;
22270;SDS011;11304;53.520;10.104;2023-05-29T09:48:42;15.55;;;3.65;;
22270;SDS011;11304;53.520;10.104;2023-05-29T09:51:18;18.10;;;4.30;;
22270;SDS011;11304;53.520;10.104;2023-05-29T09:53:46;14.55;;;3.70;;
22270;SDS011;11304;53.520;10.104;2023-05-29T09:56:13;16.48;;;3.60;;
22270;SDS011;11304;53.520;10.104;2023-05-29T09:58:42;15.50;;;3.78;;
22270;SDS011;11304;53.520;10.104;2023-05-29T10:01:13;13.70;;;3.70;;
22270;SDS011;11304;53.520;10.104;2023-05-29T10:03:41;20.30;;;4.55;;
22270;SDS011;11304;53.520;10.104;2023-05-29T10:06:07;16.58;;;4.25;;
22270;SDS011;11304;53.520;10.104;2023-05-29T10:08:37;16.20;;;4.18;;
22270;SDS011;11304;53.520;10.104;2023-05-29T10:11:03;13.98;;;3.47;;
22270;SDS011;11304;53.520;10.104;2023-05-29T10:13:35;16.95;;;3.90;;
22270;SDS011;11304;53.520;10.104;2023-05-29T10:16:03;12.27;;;3.70;;
22270;SDS011;11304;53.520;10.104;2023-05-29T10:18:31;15.10;;;3.55;;
22270;SDS011;11304;53.520;10.104;2023-05-29T10:20:59;15.15;;;3.90;;
22270;SDS011;11304;53.520;10.104;2023-05-29T10:23:26;15.70;;;3.75;;
22270;SDS011;11304;53.520;10.104;2023-05-29T10:25:55;12.52;;;3.42;;
22270;SDS011;11304;53.520;10.104;2023-05-29T10:28:24;16.38;;;3.72;;
22270;SDS011;11304;53.520;10.104;2023-05-29T10:30:55;18.95;;;4.07;;
22270;SDS011;11304;53.520;10.104;2023-05-29T10:38:27;13.00;;;3.97;;
22270;SDS011;11304;53.520;10.104;2023-05-29T10:40:53;19.45;;;4.15;;
22270;SDS011;11304;53.520;10.104;2023-05-29T10:43:29;12.35;;;3.78;;
22270;SDS011;11304;53.520;10.104;2023-05-29T10:45:59;16.63;;;3.83;;
22270;SDS011;11304;53.520;10.104;2023-05-29T10:50:55;12.02;;;3.00;;
22270;SDS011;11304;53.520;10.104;2023-05-29T10:53:25;12.85;;;3.30;;
22270;SDS011;11304;53.520;10.104;2023-05-29T10:55:53;11.98;;;3.45;;
22270;SDS011;11304;53.520;10.104;2023-05-29T10:58:20;12.10;;;3.70;;
22270;SDS011;11304;53.520;10.104;2023-05-29T11:00:48;16.02;;;3.72;;
22270;SDS011;11304;53.520;10.104;2023-05-29T11:03:17;14.88;;;3.78;;
22270;SDS011;11304;53.520;10.104;2023-05-29T11:05:58;12.75;;;3.38;;
22270;SDS011;11304;53.520;10.104;2023-05-29T11:08:58;13.73;;;4.18;;
22270;SDS011;11304;53.520;10.104;2023-05-29T11:11:50;12.70;;;3.72;;
22270;SDS011;11304;53.520;10.104;2023-05-29T11:14:10;13.38;;;3.95;;
22270;SDS011;11304;53.520;10.104;2023-05-29T11:16:36;18.73;;;3.53;;
22270;SDS011;11304;53.520;10.104;2023-05-29T11:19:03;12.48;;;3.55;;
22270;SDS011;11304;53.520;10.104;2023-05-29T11:21:34;9.55;;;3.33;;
22270;SDS011;11304;53.520;10.104;2023-05-29T11:24:04;14.70;;;3.70;;
22270;SDS011;11304;53.520;10.104;2023-05-29T11:26:31;13.55;;;3.28;;
22270;SDS011;11304;53.520;10.104;2023-05-29T11:28:58;11.35;;;3.25;;
22270;SDS011;11304;53.520;10.104;2023-05-29T11:31:25;14.60;;;3.63;;
22270;SDS011;11304;53.520;10.104;2023-05-29T11:33:52;11.63;;;3.38;;
22270;SDS011;11304;53.520;10.104;2023-05-29T11:36:21;15.20;;;3.55;;
22270;SDS011;11304;53.520;10.104;2023-05-29T11:38:48;15.35;;;4.05;;
22270;SDS011;11304;53.520;10.104;2023-05-29T11:41:14;11.80;;;3.28;;
22270;SDS011;11304;53.520;10.104;2023-05-29T11:43:42;12.40;;;3.35;;
22270;SDS011;11304;53.520;10.104;2023-05-29T11:46:18;15.85;;;3.53;;
22270;SDS011;11304;53.520;10.104;2023-05-29T11:48:47;14.55;;;3.30;;
22270;SDS011;11304;53.520;10.104;2023-05-29T11:51:14;13.20;;;3.67;;
22270;SDS011;11304;53.520;10.104;2023-05-29T11:53:43;13.48;;;3.92;;
22270;SDS011;11304;53.520;10.104;2023-05-29T11:56:12;10.65;;;3.25;;
22270;SDS011;11304;53.520;10.104;2023-05-29T11:58:38;9.55;;;3.10;;
22270;SDS011;11304;53.520;10.104;2023-05-29T12:01:05;9.23;;;2.85;;
22270;SDS011;11304;53.520;10.104;2023-05-29T12:03:41;11.93;;;3.28;;
22270;SDS011;11304;53.520;10.104;2023-05-29T12:06:08;16.02;;;4.15;;
22270;SDS011;11304;53.520;10.104;2023-05-29T12:08:35;15.15;;;3.92;;
22270;SDS011;11304;53.520;10.104;2023-05-29T12:11:02;11.48;;;3.58;;
22270;SDS011;11304;53.520;10.104;2023-05-29T12:13:28;12.75;;;4.03;;
22270;SDS011;11304;53.520;10.104;2023-05-29T12:15:56;8.70;;;3.10;;
22270;SDS011;11304;53.520;10.104;2023-05-29T12:18:27;14.55;;;3.33;;
22270;SDS011;11304;53.520;10.104;2023-05-29T12:20:58;11.35;;;3.25;;
22270;SDS011;11304;53.520;10.104;2023-05-29T12:23:24;9.93;;;3.53;;
22270;SDS011;11304;53.520;10.104;2023-05-29T12:25:51;13.00;;;3.33;;
22270;SDS011;11304;53.520;10.104;2023-05-29T12:28:18;8.57;;;2.95;;
22270;SDS011;11304;53.520;10.104;2023-05-29T12:30:44;10.90;;;3.25;;
22270;SDS011;11304;53.520;10.104;2023-05-29T12:33:30;12.73;;;3.40;;
22270;SDS011;11304;53.520;10.104;2023-05-29T12:36:06;11.50;;;3.42;;
22270;SDS011;11304;53.520;10.104;2023-05-29T12:38:41;12.68;;;3.33;;
22270;SDS011;11304;53.520;10.104;2023-05-29T12:41:33;9.77;;;3.30;;
22270;SDS011;11304;53.520;10.104;2023-05-29T12:43:58;9.85;;;3.25;;
22270;SDS011;11304;53.520;10.104;2023-05-29T12:46:26;11.93;;;2.80;;
22270;SDS011;11304;53.520;10.104;2023-05-29T12:48:55;12.82;;;3.30;;
22270;SDS011;11304;53.520;10.104;2023-05-29T12:51:22;13.05;;;3.03;;
22270;SDS011;11304;53.520;10.104;2023-05-29T12:53:48;13.52;;;3.50;;
22270;SDS011;11304;53.520;10.104;2023-05-29T12:56:15;11.43;;;3.38;;
22270;SDS011;11304;53.520;10.104;2023-05-29T12:58:41;12.70;;;3.13;;
22270;SDS011;11304;53.520;10.104;2023-05-29T13:01:12;11.45;;;3.28;;
22270;SDS011;11304;53.520;10.104;2023-05-29T13:03:41;15.45;;;3.10;;
22270;SDS011;11304;53.520;10.104;2023-05-29T13:06:07;8.40;;;2.97;;
22270;SDS011;11304;53.520;10.104;2023-05-29T13:08:33;8.82;;;2.58;;
22270;SDS011;11304;53.520;10.104;2023-05-29T13:11:00;15.75;;;3.70;;
22270;SDS011;11304;53.520;10.104;2023-05-29T13:13:26;11.30;;;3.03;;
22270;SDS011;11304;53.520;10.104;2023-05-29T13:15:52;11.82;;;3.55;;
22270;SDS011;11304;53.520;10.104;2023-05-29T13:18:18;13.50;;;3.10;;
22270;SDS011;11304;53.520;10.104;2023-05-29T13:20:44;11.80;;;3.47;;
22270;SDS011;11304;53.520;10.104;2023-05-29T13:23:11;10.43;;;3.25;;
22270;SDS011;11304;53.520;10.104;2023-05-29T13:25:37;11.27;;;3.28;;
22270;SDS011;11304;53.520;10.104;2023-05-29T13:28:03;10.48;;;3.13;;
22270;SDS011;11304;53.520;10.104;2023-05-29T13:30:29;8.70;;;2.70;;
22270;SDS011;11304;53.520;10.104;2023-05-29T13:32:55;10.55;;;3.40;;
22270;SDS011;11304;53.520;10.104;2023-05-29T13:35:21;9.02;;;2.67;;
22270;SDS011;11304;53.520;10.104;2023-05-29T13:37:47;12.88;;;3.15;;
22270;SDS011;11304;53.520;10.104;2023-05-29T13:40:14;9.63;;;3.05;;
22270;SDS011;11304;53.520;10.104;2023-05-29T13:42:40;11.82;;;3.13;;
22270;SDS011;11304;53.520;10.104;2023-05-29T13:45:06;11.35;;;3.33;;
22270;SDS011;11304;53.520;10.104;2023-05-29T13:47:33;9.10;;;3.15;;
22270;SDS011;11304;53.520;10.104;2023-05-29T13:49:59;12.80;;;3.63;;
22270;SDS011;11304;53.520;10.104;2023-05-29T13:52:26;11.38;;;3.33;;
22270;SDS011;11304;53.520;10.104;2023-05-29T13:54:52;9.30;;;3.10;;
22270;SDS011;11304;53.520;10.104;2023-05-29T13:57:18;11.73;;;2.88;;
22270;SDS011;11304;53.520;10.104;2023-05-29T13:59:44;9.40;;;3.08;;
22270;SDS011;11304;53.520;10.104;2023-05-29T14:02:11;10.30;;;3.00;;
22270;SDS011;11304;53.520;10.104;2023-05-29T14:04:37;12.45;;;2.55;;
22270;SDS011;11304;53.520;10.104;2023-05-29T14:07:03;9.55;;;2.60;;
22270;SDS011;11304;53.520;10.104;2023-05-29T14:09:30;11.55;;;2.90;;
22270;SDS011;11304;53.520;10.104;2023-05-29T14:11:59;12.15;;;3.22;;
22270;SDS011;11304;53.520;10.104;2023-05-29T14:14:27;7.80;;;2.53;;
22270;SDS011;11304;53.520;10.104;2023-05-29T14:16:53;9.48;;;2.72;;
22270;SDS011;11304;53.520;10.104;2023-05-29T14:19:21;8.73;;;3.13;;
22270;SDS011;11304;53.520;10.104;2023-05-29T14:21:47;12.60;;;3.15;;
22270;SDS011;11304;53.520;10.104;2023-05-29T14:24:13;13.40;;;3.10;;
22270;SDS011;11304;53.520;10.104;2023-05-29T14:26:40;7.43;;;2.70;;
22270;SDS011;11304;53.520;10.104;2023-05-29T14:29:08;12.30;;;3.08;;
22270;SDS011;11304;53.520;10.104;2023-05-29T14:31:35;11.05;;;2.88;;
22270;SDS011;11304;53.520;10.104;2023-05-29T14:34:01;8.50;;;2.75;;
22270;SDS011;11304;53.520;10.104;2023-05-29T14:36:27;7.43;;;2.70;;
22270;SDS011;11304;53.520;10.104;2023-05-29T14:38:53;9.65;;;3.10;;